createdAt,value
2017-10-30T00:00:40.105Z,7.06
2017-10-30T00:02:01.634Z,6.85
2017-10-30T00:03:23.484Z,6.88
2017-10-30T00:04:45.345Z,6.8
2017-10-30T00:06:07.771Z,6.79
2017-10-30T00:07:29.609Z,6.73
2017-10-30T00:08:50.837Z,6.7
2017-10-30T00:10:13.009Z,6.62
2017-10-30T00:11:34.857Z,6.49
2017-10-30T00:12:57.056Z,6.4
2017-10-30T00:14:18.888Z,6.34
2017-10-30T00:15:41.031Z,6.21
2017-10-30T00:17:03.240Z,6.09
2017-10-30T00:18:25.394Z,6.11
2017-10-30T00:19:47.709Z,6.01
2017-10-30T00:21:09.895Z,5.96
2017-10-30T00:22:32.469Z,6
2017-10-30T00:23:54.975Z,5.96
2017-10-30T00:25:17.205Z,5.96
2017-10-30T00:26:39.668Z,5.82
2017-10-30T00:28:01.512Z,5.9
2017-10-30T00:29:23.708Z,5.9
2017-10-30T00:30:45.244Z,5.89
2017-10-30T00:32:07.084Z,5.85
2017-10-30T00:33:28.931Z,5.79
2017-10-30T00:34:51.455Z,5.82
2017-10-30T00:36:12.968Z,5.78
2017-10-30T00:37:36.065Z,5.76
2017-10-30T00:38:58.726Z,5.78
2017-10-30T00:40:21.251Z,5.85
2017-10-30T00:41:42.456Z,5.97
2017-10-30T00:43:04.572Z,5.94
2017-10-30T00:44:26.443Z,6.08
2017-10-30T00:45:48.629Z,6.08
2017-10-30T00:47:10.474Z,6.06
2017-10-30T00:48:31.982Z,6.15
2017-10-30T00:49:54.157Z,6.17
2017-10-30T00:51:15.997Z,6.34
2017-10-30T00:52:38.545Z,6.36
2017-10-30T00:54:00.479Z,6.37
2017-10-30T00:55:22.325Z,6.34
2017-10-30T00:56:44.886Z,6.51
2017-10-30T00:58:07.126Z,6.49
2017-10-30T00:59:29.625Z,6.62
2017-10-30T01:00:51.143Z,6.73
2017-10-30T01:02:13.382Z,6.81
2017-10-30T01:03:35.587Z,6.84
2017-10-30T01:04:57.498Z,6.94
2017-10-30T01:06:19.662Z,7.02
2017-10-30T01:07:42.226Z,7.03
2017-10-30T01:09:04.741Z,7.03
2017-10-30T01:10:26.937Z,7.15
2017-10-30T01:11:49.078Z,7.39
2017-10-30T01:13:11.326Z,7.43
2017-10-30T01:14:33.491Z,7.49
2017-10-30T01:15:55.326Z,7.45
2017-10-30T01:17:17.162Z,7.46
2017-10-30T01:18:39.331Z,7.39
2017-10-30T01:20:01.851Z,7.27
2017-10-30T01:21:24.445Z,7.24
2017-10-30T01:22:46.610Z,7.27
2017-10-30T01:24:08.612Z,7.23
2017-10-30T01:25:31.104Z,7.32
2017-10-30T01:26:52.634Z,7.35
2017-10-30T01:28:14.914Z,7.35
2017-10-30T01:29:37.076Z,7.43
2017-10-30T01:30:59.574Z,7.43
2017-10-30T01:32:22.001Z,7.4
2017-10-30T01:33:44.693Z,7.46
2017-10-30T01:35:06.865Z,7.52
2017-10-30T01:36:29.045Z,7.83
2017-10-30T01:37:50.561Z,8.01
2017-10-30T01:39:12.391Z,7.79
2017-10-30T01:40:33.557Z,7.68
2017-10-30T01:41:55.451Z,7.64
2017-10-30T01:43:17.287Z,7.57
2017-10-30T01:44:39.456Z,7.48
2017-10-30T01:46:01.644Z,7.32
2017-10-30T01:47:23.256Z,7.24
2017-10-30T01:48:45.355Z,7.23
2017-10-30T01:50:07.961Z,6.94
2017-10-30T01:51:29.809Z,6.91
2017-10-30T01:52:51.650Z,6.91
2017-10-30T01:54:14.175Z,6.81
2017-10-30T01:55:36.337Z,6.77
2017-10-30T01:56:58.507Z,6.7
2017-10-30T01:58:20.677Z,6.74
2017-10-30T01:59:42.827Z,6.59
2017-10-30T02:01:04.785Z,6.69
2017-10-30T02:02:25.641Z,6.67
2017-10-30T02:03:47.941Z,6.84
2017-10-30T02:05:10.448Z,6.76
2017-10-30T02:06:32.336Z,6.87
2017-10-30T02:07:54.510Z,6.88
2017-10-30T02:09:16.415Z,6.99
2017-10-30T02:10:39.147Z,7.05
2017-10-30T02:12:00.723Z,7.16
2017-10-30T02:13:22.905Z,7.2
2017-10-30T02:14:45.422Z,7.07
2017-10-30T02:16:07.388Z,7.12
2017-10-30T02:17:29.642Z,7.02
2017-10-30T02:18:51.175Z,7.07
2017-10-30T02:20:13.017Z,6.91
2017-10-30T02:21:34.848Z,6.99
2017-10-30T02:22:56.394Z,7.06
2017-10-30T02:24:18.280Z,7.06
2017-10-30T02:25:40.536Z,7.02
2017-10-30T02:27:02.621Z,7.06
2017-10-30T02:28:24.954Z,7.03
2017-10-30T02:29:47.126Z,6.87
2017-10-30T02:31:09.013Z,6.91
2017-10-30T02:32:31.814Z,6.79
2017-10-30T02:33:54.321Z,6.79
2017-10-30T02:35:15.865Z,6.77
2017-10-30T02:36:38.046Z,6.81
2017-10-30T02:38:00.220Z,6.76
2017-10-30T02:39:22.092Z,6.88
2017-10-30T02:40:43.616Z,6.77
2017-10-30T02:42:05.800Z,6.79
2017-10-30T02:43:28.346Z,6.95
2017-10-30T02:44:50.176Z,6.89
2017-10-30T02:46:12.376Z,7.06
2017-10-30T02:47:34.909Z,7.21
2017-10-30T02:48:57.475Z,7.16
2017-10-30T02:50:19.985Z,7.17
2017-10-30T02:51:42.210Z,7.17
2017-10-30T02:53:04.039Z,7.21
2017-10-30T02:54:26.221Z,7.39
2017-10-30T02:55:48.900Z,7.35
2017-10-30T02:57:11.416Z,7.37
2017-10-30T02:58:33.582Z,7.49
2017-10-30T02:59:56.015Z,7.45
2017-10-30T03:01:18.269Z,7.52
2017-10-30T03:02:39.878Z,7.58
2017-10-30T03:04:01.058Z,7.58
2017-10-30T03:05:23.537Z,7.61
2017-10-30T03:06:46.136Z,7.6
2017-10-30T03:08:08.311Z,7.57
2017-10-30T03:09:30.596Z,7.48
2017-10-30T03:10:52.795Z,7.48
2017-10-30T03:12:15.318Z,7.43
2017-10-30T03:13:37.493Z,7.43
2017-10-30T03:15:00.000Z,7.48
2017-10-30T03:16:22.539Z,7.4
2017-10-30T03:17:44.385Z,7.37
2017-10-30T03:19:06.575Z,7.35
2017-10-30T03:20:28.407Z,7.16
2017-10-30T03:21:51.196Z,7.15
2017-10-30T03:23:13.702Z,6.99
2017-10-30T03:24:35.245Z,7.05
2017-10-30T03:25:57.395Z,6.89
2017-10-30T03:27:19.165Z,6.92
2017-10-30T03:28:40.685Z,6.97
2017-10-30T03:30:02.184Z,6.89
2017-10-30T03:31:24.344Z,6.88
2017-10-30T03:32:45.935Z,6.8
2017-10-30T03:34:07.816Z,6.89
2017-10-30T03:35:30.326Z,6.8
2017-10-30T03:36:52.475Z,6.77
2017-10-30T03:38:14.554Z,6.81
2017-10-30T03:39:36.397Z,6.81
2017-10-30T03:40:58.227Z,6.81
2017-10-30T03:42:20.729Z,6.95
2017-10-30T03:43:43.297Z,6.92
2017-10-30T03:45:05.156Z,7.05
2017-10-30T03:46:27.445Z,7.09
2017-10-30T03:47:49.284Z,7.12
2017-10-30T03:49:11.717Z,7.27
2017-10-30T03:50:34.235Z,7.17
2017-10-30T03:51:56.404Z,7.25
2017-10-30T03:53:17.625Z,7.25
2017-10-30T03:54:54.684Z,7.28
2017-10-30T03:56:16.531Z,7.25
2017-10-30T03:57:38.711Z,7.21
2017-10-30T03:59:00.869Z,7.25
2017-10-30T04:00:22.001Z,7.31
2017-10-30T04:01:44.506Z,7.23
2017-10-30T04:03:06.703Z,7.23
2017-10-30T04:04:28.874Z,7.13
2017-10-30T04:05:51.351Z,7.09
2017-10-30T04:07:12.254Z,7.02
2017-10-30T04:08:34.091Z,6.91
2017-10-30T04:09:55.947Z,6.94
2017-10-30T04:11:18.126Z,6.89
2017-10-30T04:12:39.964Z,6.87
2017-10-30T04:14:02.141Z,6.85
2017-10-30T04:15:24.290Z,6.8
2017-10-30T04:16:46.714Z,6.71
2017-10-30T04:18:08.231Z,6.73
2017-10-30T04:19:30.424Z,6.56
2017-10-30T04:20:51.621Z,6.49
2017-10-30T04:22:13.766Z,6.48
2017-10-30T04:23:35.667Z,6.51
2017-10-30T04:24:58.296Z,6.43
2017-10-30T04:26:20.128Z,6.38
2017-10-30T04:27:41.963Z,6.22
2017-10-30T04:29:03.136Z,6.17
2017-10-30T04:30:25.078Z,6.12
2017-10-30T04:31:46.591Z,6.06
2017-10-30T04:33:08.357Z,5.96
2017-10-30T04:34:30.844Z,5.99
2017-10-30T04:35:52.345Z,5.94
2017-10-30T04:37:13.514Z,5.9
2017-10-30T04:38:35.655Z,5.86
2017-10-30T04:39:57.515Z,5.85
2017-10-30T04:41:19.344Z,5.85
2017-10-30T04:42:40.995Z,5.89
2017-10-30T04:44:03.097Z,5.83
2017-10-30T04:45:25.286Z,5.83
2017-10-30T04:46:47.897Z,6.01
2017-10-30T04:48:09.394Z,5.97
2017-10-30T04:49:32.192Z,5.89
2017-10-30T04:50:53.694Z,5.89
2017-10-30T04:52:15.522Z,5.76
2017-10-30T04:53:37.024Z,5.71
2017-10-30T04:54:59.284Z,5.63
2017-10-30T04:56:21.129Z,5.56
2017-10-30T04:57:42.644Z,5.4
2017-10-30T04:59:04.859Z,5.35
2017-10-30T05:00:27.509Z,5.31
2017-10-30T05:01:49.027Z,5.27
2017-10-30T05:03:11.014Z,5.2
2017-10-30T05:04:33.206Z,5.13
2017-10-30T05:05:55.064Z,5.04
2017-10-30T05:07:16.901Z,4.89
2017-10-30T05:08:39.158Z,4.86
2017-10-30T05:10:01.336Z,4.77
2017-10-30T05:11:23.134Z,4.7
2017-10-30T05:12:45.296Z,4.69
2017-10-30T05:14:07.482Z,4.59
2017-10-30T05:15:29.303Z,4.48
2017-10-30T05:16:51.118Z,4.48
2017-10-30T05:18:13.628Z,4.34
2017-10-30T05:19:35.815Z,4.32
2017-10-30T05:20:57.324Z,4.23
2017-10-30T05:22:19.502Z,4.22
2017-10-30T05:23:41.355Z,4.14
2017-10-30T05:25:03.305Z,4.16
2017-10-30T05:26:24.533Z,4.14
2017-10-30T05:27:47.259Z,4.08
2017-10-30T05:29:08.774Z,4.14
2017-10-30T05:30:30.277Z,4.14
2017-10-30T05:31:52.110Z,4.09
2017-10-30T05:33:13.973Z,4.02
2017-10-30T05:34:35.502Z,4.16
2017-10-30T05:35:57.674Z,4.18
2017-10-30T05:37:19.511Z,4.26
2017-10-30T05:38:41.332Z,4.3
2017-10-30T05:40:03.266Z,4.42
2017-10-30T05:41:24.434Z,4.55
2017-10-30T05:42:46.607Z,4.67
2017-10-30T05:44:09.096Z,4.86
2017-10-30T05:45:31.357Z,4.86
2017-10-30T05:46:53.664Z,4.8
2017-10-30T05:48:15.843Z,4.97
2017-10-30T05:49:37.984Z,5.02
2017-10-30T05:51:00.164Z,5.09
2017-10-30T05:52:22.352Z,5.18
2017-10-30T05:53:44.537Z,5.18
2017-10-30T05:55:06.360Z,5.28
2017-10-30T05:56:28.859Z,5.35
2017-10-30T05:57:51.202Z,5.27
2017-10-30T05:59:13.379Z,5.38
2017-10-30T06:00:35.541Z,5.43
2017-10-30T06:01:57.094Z,5.33
2017-10-30T06:03:18.678Z,5.42
2017-10-30T06:04:40.505Z,5.35
2017-10-30T06:06:03.014Z,5.39
2017-10-30T06:07:25.550Z,5.31
2017-10-30T06:08:47.726Z,5.28
2017-10-30T06:10:10.244Z,5.33
2017-10-30T06:11:32.387Z,5.3
2017-10-30T06:12:54.574Z,5.28
2017-10-30T06:14:16.408Z,5.28
2017-10-30T06:15:38.931Z,5.18
2017-10-30T06:17:01.444Z,5.17
2017-10-30T06:18:23.610Z,5.15
2017-10-30T06:19:44.798Z,5.12
2017-10-30T06:21:06.664Z,5.07
2017-10-30T06:22:28.575Z,4.99
2017-10-30T06:23:50.744Z,4.94
2017-10-30T06:25:12.597Z,4.97
2017-10-30T06:26:34.114Z,4.84
2017-10-30T06:27:56.926Z,4.84
2017-10-30T06:29:18.771Z,4.8
2017-10-30T06:30:41.263Z,4.73
2017-10-30T06:32:02.770Z,4.62
2017-10-30T06:33:24.564Z,4.69
2017-10-30T06:34:46.412Z,4.59
2017-10-30T06:36:08.387Z,4.69
2017-10-30T06:37:30.360Z,4.62
2017-10-30T06:38:52.824Z,4.62
2017-10-30T06:40:15.333Z,4.58
2017-10-30T06:41:37.530Z,4.48
2017-10-30T06:42:59.373Z,4.5
2017-10-30T06:44:21.267Z,4.48
2017-10-30T06:45:43.773Z,4.42
2017-10-30T06:47:05.653Z,4.37
2017-10-30T06:48:27.883Z,4.36
2017-10-30T06:49:49.812Z,4.44
2017-10-30T06:51:11.651Z,4.42
2017-10-30T06:52:33.824Z,4.52
2017-10-30T06:53:55.795Z,4.55
2017-10-30T06:55:18.106Z,4.62
2017-10-30T06:56:40.044Z,4.67
2017-10-30T06:58:02.565Z,4.7
2017-10-30T06:59:24.747Z,4.85
2017-10-30T07:00:47.532Z,5
2017-10-30T07:02:09.119Z,5.13
2017-10-30T07:03:31.322Z,5.21
2017-10-30T07:04:53.789Z,5.27
2017-10-30T07:06:16.323Z,5.22
2017-10-30T07:07:38.491Z,5.24
2017-10-30T07:09:00.663Z,5.15
2017-10-30T07:10:22.499Z,5.15
2017-10-30T07:11:44.768Z,5.12
2017-10-30T07:13:06.602Z,5.12
2017-10-30T07:14:29.179Z,5.12
2017-10-30T07:15:51.025Z,5.1
2017-10-30T07:17:13.222Z,5.09
2017-10-30T07:18:34.798Z,5.13
2017-10-30T07:19:56.721Z,5.21
2017-10-30T07:21:18.581Z,5.21
2017-10-30T07:22:40.784Z,5.2
2017-10-30T07:24:02.645Z,5.27
2017-10-30T07:25:25.227Z,5.3
2017-10-30T07:26:47.392Z,5.3
2017-10-30T07:28:09.886Z,5.35
2017-10-30T07:29:32.387Z,5.33
2017-10-30T07:30:54.901Z,5.58
2017-10-30T07:32:17.433Z,5.51
2017-10-30T07:33:39.183Z,5.57
2017-10-30T07:35:01.746Z,5.63
2017-10-30T07:36:23.924Z,5.65
2017-10-30T07:37:46.455Z,5.71
2017-10-30T07:39:09.247Z,5.76
2017-10-30T07:40:31.146Z,5.97
2017-10-30T07:41:53.678Z,6.09
2017-10-30T07:43:15.174Z,6.33
2017-10-30T07:44:38.152Z,6.52
2017-10-30T07:45:59.993Z,6.69
2017-10-30T07:47:21.576Z,6.95
2017-10-30T07:48:43.754Z,7.27
2017-10-30T07:50:04.648Z,7.6
2017-10-30T07:51:26.755Z,7.95
2017-10-30T07:52:49.313Z,8.16
2017-10-30T07:54:11.483Z,8.45
2017-10-30T07:55:33.589Z,8.66
2017-10-30T07:56:56.104Z,8.86
2017-10-30T07:58:18.349Z,8.99
2017-10-30T07:59:40.876Z,9.08
2017-10-30T08:01:03.373Z,9.01
2017-10-30T08:02:25.215Z,9.08
2017-10-30T08:03:47.413Z,9.11
2017-10-30T08:05:09.268Z,9.14
2017-10-30T08:06:31.462Z,9.14
2017-10-30T08:07:53.326Z,9.14
2017-10-30T08:09:15.537Z,9.04
2017-10-30T08:10:37.734Z,8.94
2017-10-30T08:12:00.244Z,8.84
2017-10-30T08:13:22.093Z,8.63
2017-10-30T08:14:44.120Z,8.5
2017-10-30T08:16:06.289Z,8.37
2017-10-30T08:17:28.409Z,8.3
2017-10-30T08:18:50.257Z,8.25
2017-10-30T08:20:12.439Z,8.33
2017-10-30T08:21:34.604Z,8.29
2017-10-30T08:22:57.136Z,8.33
2017-10-30T08:24:19.396Z,8.19
2017-10-30T08:25:41.655Z,8.29
2017-10-30T08:27:03.528Z,8.34
2017-10-30T08:28:25.697Z,8.34
2017-10-30T08:29:48.035Z,8.28
2017-10-30T08:31:09.895Z,8.38
2017-10-30T08:32:32.114Z,8.36
2017-10-30T08:33:54.385Z,8.26
2017-10-30T08:35:16.270Z,8.38
2017-10-30T08:36:38.465Z,8.43
2017-10-30T08:38:00.654Z,8.58
2017-10-30T08:39:22.855Z,8.47
2017-10-30T08:40:45.035Z,8.55
2017-10-30T08:42:07.236Z,8.56
2017-10-30T08:43:29.769Z,8.63
2017-10-30T08:44:52.320Z,8.7
2017-10-30T08:46:14.186Z,8.79
2017-10-30T08:47:36.038Z,8.81
2017-10-30T08:48:57.912Z,8.94
2017-10-30T08:50:20.764Z,9.08
2017-10-30T08:51:43.280Z,9.24
2017-10-30T08:53:05.466Z,9.42
2017-10-30T08:54:28.043Z,9.6
2017-10-30T08:55:49.894Z,9.66
2017-10-30T08:57:12.084Z,9.68
2017-10-30T08:58:34.394Z,9.71
2017-10-30T08:59:56.935Z,9.66
2017-10-30T09:01:19.457Z,9.66
2017-10-30T09:02:41.983Z,9.69
2017-10-30T09:04:04.234Z,9.61
2017-10-30T09:05:26.556Z,9.71
2017-10-30T09:06:48.593Z,9.64
2017-10-30T09:08:10.882Z,9.61
2017-10-30T09:09:33.411Z,9.58
2017-10-30T09:10:55.674Z,9.57
2017-10-30T09:12:18.493Z,9.6
2017-10-30T09:13:40.675Z,9.57
2017-10-30T09:15:02.202Z,9.65
2017-10-30T09:16:23.710Z,9.58
2017-10-30T09:17:45.945Z,9.58
2017-10-30T09:19:08.511Z,9.58
2017-10-30T09:20:31.046Z,9.58
2017-10-30T09:21:53.566Z,9.56
2017-10-30T09:23:15.785Z,9.61
2017-10-30T09:24:38.280Z,9.69
2017-10-30T09:26:00.157Z,9.74
2017-10-30T09:27:22.325Z,9.79
2017-10-30T09:28:44.166Z,9.83
2017-10-30T09:30:06.133Z,9.83
2017-10-30T09:31:28.025Z,9.86
2017-10-30T09:32:50.204Z,9.96
2017-10-30T09:34:12.885Z,10.02
2017-10-30T09:35:34.825Z,10.01
2017-10-30T09:36:56.683Z,10.14
2017-10-30T09:38:18.197Z,10.18
2017-10-30T09:39:40.093Z,10.27
2017-10-30T09:41:02.604Z,10.29
2017-10-30T09:42:25.117Z,10.26
2017-10-30T09:43:47.714Z,10.41
2017-10-30T09:45:09.896Z,10.4
2017-10-30T09:46:32.416Z,10.44
2017-10-30T09:47:54.262Z,10.73
2017-10-30T09:49:16.456Z,10.92
2017-10-30T09:50:38.647Z,11.19
2017-10-30T09:52:00.484Z,11.52
2017-10-30T09:53:22.768Z,11.82
2017-10-30T09:54:45.045Z,12.01
2017-10-30T09:56:07.296Z,11.96
2017-10-30T09:57:29.488Z,12.01
2017-10-30T09:58:50.671Z,12.04
2017-10-30T10:00:12.922Z,11.99
2017-10-30T10:01:35.708Z,12.1
2017-10-30T10:02:58.414Z,12.05
2017-10-30T10:04:19.976Z,12.12
2017-10-30T10:05:42.182Z,12.17
2017-10-30T10:07:04.396Z,12.07
2017-10-30T10:08:26.987Z,12.04
2017-10-30T10:09:49.344Z,11.99
2017-10-30T10:11:11.525Z,12.04
2017-10-30T10:12:34.005Z,11.95
2017-10-30T10:13:56.548Z,11.85
2017-10-30T10:15:18.766Z,11.76
2017-10-30T10:16:40.639Z,11.82
2017-10-30T10:18:02.839Z,11.75
2017-10-30T10:19:24.708Z,11.62
2017-10-30T10:20:46.922Z,11.7
2017-10-30T10:22:09.123Z,11.64
2017-10-30T10:23:31.400Z,11.67
2017-10-30T10:24:53.923Z,11.7
2017-10-30T10:26:16.458Z,11.83
2017-10-30T10:27:38.449Z,12.04
2017-10-30T10:29:00.945Z,12.23
2017-10-30T10:30:23.458Z,12.29
2017-10-30T10:31:45.739Z,12.46
2017-10-30T10:33:08.252Z,12.45
2017-10-30T10:34:30.415Z,12.6
2017-10-30T10:35:52.592Z,12.59
2017-10-30T10:37:14.815Z,12.79
2017-10-30T10:38:37.022Z,13.01
2017-10-30T10:39:59.495Z,13.03
2017-10-30T10:41:21.354Z,12.86
2017-10-30T10:42:43.227Z,12.82
2017-10-30T10:44:05.434Z,12.68
2017-10-30T10:45:27.204Z,12.64
2017-10-30T10:46:49.069Z,12.41
2017-10-30T10:48:11.257Z,12.23
2017-10-30T10:49:33.520Z,11.98
2017-10-30T10:50:56.306Z,11.88
2017-10-30T10:52:18.519Z,11.65
2017-10-30T10:53:40.759Z,11.43
2017-10-30T10:55:02.963Z,11.33
2017-10-30T10:56:24.800Z,11.22
2017-10-30T10:57:46.318Z,11.18
2017-10-30T10:59:08.865Z,11.21
2017-10-30T11:00:31.096Z,11.19
2017-10-30T11:01:54.119Z,11.29
2017-10-30T11:03:16.310Z,11.28
2017-10-30T11:04:38.153Z,11.24
2017-10-30T11:06:00.695Z,11.37
2017-10-30T11:07:22.906Z,11.33
2017-10-30T11:08:45.159Z,11.39
2017-10-30T11:10:07.055Z,11.33
2017-10-30T11:11:29.564Z,11.44
2017-10-30T11:12:52.105Z,11.43
2017-10-30T11:14:13.961Z,11.46
2017-10-30T11:15:35.134Z,11.52
2017-10-30T11:16:57.371Z,11.55
2017-10-30T11:18:20.202Z,11.6
2017-10-30T11:19:42.137Z,11.61
2017-10-30T11:21:04.330Z,11.7
2017-10-30T11:22:26.716Z,11.7
2017-10-30T11:23:48.920Z,11.69
2017-10-30T11:25:11.165Z,11.65
2017-10-30T11:26:33.024Z,11.64
2017-10-30T11:27:55.060Z,11.75
2017-10-30T11:29:17.595Z,11.64
2017-10-30T11:30:39.783Z,11.67
2017-10-30T11:32:01.983Z,11.75
2017-10-30T11:33:24.216Z,11.83
2017-10-30T11:34:46.466Z,11.85
2017-10-30T11:36:09.062Z,11.73
2017-10-30T11:37:31.253Z,11.78
2017-10-30T11:38:53.457Z,11.73
2017-10-30T11:40:16.005Z,11.79
2017-10-30T11:41:38.619Z,11.9
2017-10-30T11:43:00.475Z,12.01
2017-10-30T11:44:22.686Z,11.9
2017-10-30T11:45:44.570Z,11.96
2017-10-30T11:47:06.756Z,11.95
2017-10-30T11:48:28.946Z,12.1
2017-10-30T11:49:50.817Z,12.35
2017-10-30T11:51:13.062Z,12.52
2017-10-30T11:52:34.921Z,12.59
2017-10-30T11:53:57.129Z,12.49
2017-10-30T11:55:18.984Z,12.31
2017-10-30T11:56:41.582Z,12.45
2017-10-30T11:58:03.776Z,12.45
2017-10-30T11:59:26.035Z,12.52
2017-10-30T12:00:48.543Z,12.35
2017-10-30T12:02:10.420Z,12.27
2017-10-30T12:03:32.352Z,12.35
2017-10-30T12:04:54.587Z,12.32
2017-10-30T12:06:17.155Z,12.31
2017-10-30T12:07:39.347Z,12.27
2017-10-30T12:09:01.859Z,12.23
2017-10-30T12:10:24.387Z,12.31
2017-10-30T12:11:46.372Z,12.27
2017-10-30T12:13:08.881Z,12.39
2017-10-30T12:14:31.135Z,12.34
2017-10-30T12:15:53.424Z,12.5
2017-10-30T12:17:15.284Z,12.46
2017-10-30T12:18:37.243Z,12.27
2017-10-30T12:19:59.451Z,12.31
2017-10-30T12:21:21.646Z,12.39
2017-10-30T12:22:43.817Z,12.42
2017-10-30T12:24:06.336Z,12.39
2017-10-30T12:25:28.675Z,12.59
2017-10-30T12:26:51.258Z,12.5
2017-10-30T12:28:13.870Z,12.52
2017-10-30T12:29:35.735Z,12.38
2017-10-30T12:30:57.606Z,12.39
2017-10-30T12:32:19.829Z,12.42
2017-10-30T12:33:42.027Z,12.29
2017-10-30T12:35:04.576Z,12.23
2017-10-30T12:36:27.129Z,12.13
2017-10-30T12:37:49.326Z,11.99
2017-10-30T12:39:11.516Z,11.82
2017-10-30T12:40:33.821Z,11.62
2017-10-30T12:41:56.018Z,11.52
2017-10-30T12:43:18.645Z,11.47
2017-10-30T12:44:40.621Z,11.37
2017-10-30T12:46:02.826Z,11.25
2017-10-30T12:47:25.027Z,11.35
2017-10-30T12:48:47.224Z,11.36
2017-10-30T12:50:09.079Z,11.43
2017-10-30T12:51:31.284Z,11.7
2017-10-30T12:52:53.157Z,11.72
2017-10-30T12:54:15.669Z,11.91
2017-10-30T12:55:37.542Z,11.98
2017-10-30T12:57:00.132Z,11.95
2017-10-30T12:58:22.335Z,11.95
2017-10-30T12:59:43.985Z,11.99
2017-10-30T13:01:05.827Z,12.1
2017-10-30T13:02:28.527Z,11.96
2017-10-30T13:03:50.077Z,12.12
2017-10-30T13:05:12.367Z,12.27
2017-10-30T13:06:34.568Z,12.35
2017-10-30T13:07:57.245Z,12.41
2017-10-30T13:09:19.841Z,12.52
2017-10-30T13:10:41.843Z,12.57
2017-10-30T13:12:04.367Z,12.75
2017-10-30T13:13:26.884Z,12.59
2017-10-30T13:14:48.510Z,12.53
2017-10-30T13:16:10.813Z,12.39
2017-10-30T13:17:33.024Z,11.76
2017-10-30T13:18:54.560Z,11.21
2017-10-30T13:20:16.426Z,10.41
2017-10-30T13:21:39.073Z,10.33
2017-10-30T13:23:01.595Z,10.14
2017-10-30T13:24:23.802Z,10.05
2017-10-30T13:25:45.459Z,10.05
2017-10-30T13:27:07.974Z,9.96
2017-10-30T13:28:30.207Z,10.05
2017-10-30T13:29:52.988Z,9.99
2017-10-30T13:31:15.182Z,9.81
2017-10-30T13:32:37.383Z,9.74
2017-10-30T13:33:59.574Z,9.79
2017-10-30T13:35:21.764Z,9.72
2017-10-30T13:36:44.313Z,9.81
2017-10-30T13:38:06.256Z,9.78
2017-10-30T13:39:28.818Z,9.76
2017-10-30T13:40:50.683Z,9.83
2017-10-30T13:42:12.895Z,9.74
2017-10-30T13:43:35.098Z,9.86
2017-10-30T13:44:56.986Z,9.79
2017-10-30T13:46:19.813Z,9.87
2017-10-30T13:47:42.341Z,9.79
2017-10-30T13:49:04.516Z,9.81
2017-10-30T13:50:26.711Z,9.78
2017-10-30T13:51:48.572Z,9.64
2017-10-30T13:53:10.778Z,9.69
2017-10-30T13:54:32.966Z,9.74
2017-10-30T13:55:55.518Z,9.76
2017-10-30T13:57:18.087Z,9.71
2017-10-30T13:58:40.267Z,9.78
2017-10-30T14:00:02.552Z,9.86
2017-10-30T14:01:24.770Z,9.96
2017-10-30T14:02:47.430Z,9.99
2017-10-30T14:04:09.633Z,10.15
2017-10-30T14:05:31.974Z,10.15
2017-10-30T14:06:54.537Z,10.2
2017-10-30T14:08:16.476Z,10.25
2017-10-30T14:09:39.041Z,10.23
2017-10-30T14:11:01.568Z,10.32
2017-10-30T14:12:24.093Z,10.27
2017-10-30T14:13:46.923Z,10.38
2017-10-30T14:15:09.141Z,10.48
2017-10-30T14:16:31.453Z,10.48
2017-10-30T14:17:53.645Z,10.6
2017-10-30T14:19:15.625Z,10.67
2017-10-30T14:20:37.823Z,10.64
2017-10-30T14:22:00.014Z,10.76
2017-10-30T14:23:21.942Z,10.85
2017-10-30T14:24:44.127Z,10.84
2017-10-30T14:26:05.726Z,10.88
2017-10-30T14:27:27.041Z,10.91
2017-10-30T14:28:48.893Z,10.89
2017-10-30T14:30:10.743Z,10.91
2017-10-30T14:31:33.014Z,10.89
2017-10-30T14:32:55.634Z,10.92
2017-10-30T14:34:17.557Z,10.91
2017-10-30T14:35:40.103Z,10.85
2017-10-30T14:37:02.616Z,10.78
2017-10-30T14:38:24.785Z,10.84
2017-10-30T14:39:47.305Z,10.76
2017-10-30T14:41:09.882Z,10.78
2017-10-30T14:42:31.781Z,10.74
2017-10-30T14:43:53.966Z,10.78
2017-10-30T14:45:16.521Z,10.76
2017-10-30T14:46:38.828Z,10.61
2017-10-30T14:48:01.366Z,10.6
2017-10-30T14:49:23.293Z,10.4
2017-10-30T14:50:45.204Z,10.32
2017-10-30T14:52:07.058Z,10.12
2017-10-30T14:53:29.248Z,10.09
2017-10-30T14:54:51.904Z,9.99
2017-10-30T14:56:14.086Z,9.86
2017-10-30T14:57:35.605Z,9.86
2017-10-30T14:58:57.833Z,9.66
2017-10-30T15:00:20.350Z,9.71
2017-10-30T15:01:42.545Z,9.58
2017-10-30T15:03:04.754Z,9.56
2017-10-30T15:04:26.594Z,9.39
2017-10-30T15:05:48.787Z,9.46
2017-10-30T15:07:10.958Z,9.36
2017-10-30T15:08:32.520Z,9.32
2017-10-30T15:09:54.705Z,9.32
2017-10-30T15:11:16.259Z,9.28
2017-10-30T15:12:38.767Z,9.31
2017-10-30T15:14:01.317Z,9.31
2017-10-30T15:15:23.524Z,9.39
2017-10-30T15:16:46.054Z,9.43
2017-10-30T15:18:08.584Z,9.46
2017-10-30T15:19:31.174Z,9.57
2017-10-30T15:20:53.738Z,9.61
2017-10-30T15:22:15.588Z,9.57
2017-10-30T15:23:37.798Z,9.6
2017-10-30T15:25:00.572Z,9.56
2017-10-30T15:26:22.432Z,9.56
2017-10-30T15:27:44.964Z,9.58
2017-10-30T15:29:06.874Z,9.53
2017-10-30T15:30:29.464Z,9.58
2017-10-30T15:31:51.708Z,9.58
2017-10-30T15:33:13.955Z,9.5
2017-10-30T15:34:36.513Z,9.46
2017-10-30T15:35:58.690Z,9.46
2017-10-30T15:37:20.884Z,9.39
2017-10-30T15:38:43.195Z,9.38
2017-10-30T15:40:05.534Z,9.29
2017-10-30T15:41:27.768Z,9.15
2017-10-30T15:42:49.950Z,9.08
2017-10-30T15:44:12.154Z,8.99
2017-10-30T15:45:34.007Z,8.83
2017-10-30T15:46:56.793Z,8.83
2017-10-30T15:48:18.639Z,8.71
2017-10-30T15:49:41.253Z,8.59
2017-10-30T15:51:03.778Z,8.5
2017-10-30T15:52:26.051Z,8.37
2017-10-30T15:53:48.652Z,8.34
2017-10-30T15:55:10.873Z,8.28
2017-10-30T15:56:33.053Z,8.28
2017-10-30T15:57:54.914Z,8.29
2017-10-30T15:59:17.433Z,8.3
2017-10-30T16:00:39.644Z,8.41
2017-10-30T16:02:01.835Z,8.41
2017-10-30T16:03:24.406Z,8.45
2017-10-30T16:04:46.566Z,8.5
2017-10-30T16:06:09.110Z,8.47
2017-10-30T16:07:31.316Z,8.48
2017-10-30T16:08:53.807Z,8.56
2017-10-30T16:10:16.000Z,8.52
2017-10-30T16:11:38.234Z,8.52
2017-10-30T16:12:59.766Z,8.55
2017-10-30T16:14:21.817Z,8.59
2017-10-30T16:15:43.855Z,8.55
2017-10-30T16:17:06.363Z,8.56
2017-10-30T16:18:28.569Z,8.68
2017-10-30T16:19:51.079Z,8.66
2017-10-30T16:21:13.344Z,8.68
2017-10-30T16:22:35.844Z,8.68
2017-10-30T16:23:58.142Z,8.74
2017-10-30T16:25:20.651Z,8.86
2017-10-30T16:26:42.864Z,8.8
2017-10-30T16:28:05.045Z,8.8
2017-10-30T16:29:27.589Z,8.87
2017-10-30T16:30:49.787Z,8.81
2017-10-30T16:32:11.985Z,8.83
2017-10-30T16:33:34.514Z,8.87
2017-10-30T16:34:56.698Z,8.87
2017-10-30T16:36:19.214Z,8.77
2017-10-30T16:37:41.522Z,8.74
2017-10-30T16:39:03.701Z,8.74
2017-10-30T16:40:26.204Z,8.68
2017-10-30T16:41:48.415Z,8.84
2017-10-30T16:43:10.925Z,8.79
2017-10-30T16:44:33.475Z,8.84
2017-10-30T16:45:56.017Z,8.79
2017-10-30T16:47:18.267Z,9.02
2017-10-30T16:48:40.226Z,9.1
2017-10-30T16:50:02.760Z,9.04
2017-10-30T16:51:24.996Z,9.02
2017-10-30T16:52:47.573Z,8.99
2017-10-30T16:54:10.133Z,8.98
2017-10-30T16:55:32.656Z,8.96
2017-10-30T16:56:54.852Z,8.99
2017-10-30T16:58:17.046Z,8.84
2017-10-30T16:59:39.230Z,8.95
2017-10-30T17:01:01.445Z,8.84
2017-10-30T17:02:23.311Z,8.8
2017-10-30T17:03:45.509Z,8.91
2017-10-30T17:05:07.387Z,8.76
2017-10-30T17:06:29.932Z,8.74
2017-10-30T17:07:52.535Z,8.77
2017-10-30T17:09:14.826Z,8.79
2017-10-30T17:10:37.022Z,8.76
2017-10-30T17:11:59.546Z,8.7
2017-10-30T17:13:21.784Z,8.61
2017-10-30T17:14:44.319Z,8.47
2017-10-30T17:16:06.534Z,8.29
2017-10-30T17:17:28.718Z,8.29
2017-10-30T17:18:51.276Z,8.22
2017-10-30T17:20:14.183Z,8.08
2017-10-30T17:21:36.413Z,8.15
2017-10-30T17:22:58.624Z,8.07
2017-10-30T17:24:21.225Z,7.97
2017-10-30T17:25:43.760Z,7.79
2017-10-30T17:27:06.058Z,7.79
2017-10-30T17:28:28.257Z,7.69
2017-10-30T17:29:50.909Z,7.75
2017-10-30T17:31:13.555Z,7.69
2017-10-30T17:32:35.417Z,7.71
2017-10-30T17:33:57.972Z,7.63
2017-10-30T17:35:20.492Z,7.64
2017-10-30T17:36:42.683Z,7.69
2017-10-30T17:38:04.886Z,7.69
2017-10-30T17:39:27.104Z,7.8
2017-10-30T17:40:48.980Z,7.79
2017-10-30T17:42:11.196Z,8.04
2017-10-30T17:43:33.413Z,8.04
2017-10-30T17:44:55.615Z,8.15
2017-10-30T17:46:18.176Z,8.18
2017-10-30T17:47:40.366Z,8.29
2017-10-30T17:49:02.954Z,8.26
2017-10-30T17:50:25.481Z,8.43
2017-10-30T17:51:48.024Z,8.61
2017-10-30T17:53:10.296Z,8.5
2017-10-30T17:54:32.824Z,8.58
2017-10-30T17:55:55.348Z,8.63
2017-10-30T17:57:17.264Z,8.63
2017-10-30T17:58:39.794Z,8.66
2017-10-30T18:00:02.142Z,8.66
2017-10-30T18:01:24.325Z,8.58
2017-10-30T18:02:46.989Z,8.5
2017-10-30T18:04:09.597Z,8.44
2017-10-30T18:05:32.288Z,8.45
2017-10-30T18:06:54.876Z,8.3